Time;durP1;ratioP1;P1;durP2;ratioP2;P2;SDS_P1;SDS_P2;PMS_P1;PMS_P2;Temp;Humidity;BMP_temperature;BMP_pressure;BME280_temperature;BME280_humidity;BME280_pressure;Samples;Min_cycle;Max_cycle;Signal;HPM_P1;HPM_P2
2022/10/19 00:01:18;;;;;;;26.35;4.78;;;;;;;10.05;98.55;102395.16;5072643;28;20545;-57
2022/10/19 00:03:48;;;;;;;20.53;5.17;;;;;;;10.04;98.60;102401.44;5071895;28;20047;-57
2022/10/19 00:06:25;;;;;;;23.02;5.03;;;;;;;10.04;98.21;102397.91;5043975;28;20041;-57
2022/10/19 00:08:54;;;;;;;19.15;4.57;;;;;;;10.04;98.08;102401.44;5032285;28;20041;-57
2022/10/19 00:11:22;;;;;;;21.83;5.03;;;;;;;10.09;97.45;102401.09;5032277;28;20045;-57
2022/10/19 00:13:50;;;;;;;17.13;4.85;;;;;;;9.86;98.58;102390.34;5032115;28;20053;-57
2022/10/19 00:16:18;;;;;;;24.08;5.25;;;;;;;9.99;97.74;102395.59;5036351;28;20445;-57
2022/10/19 00:18:45;;;;;;;16.15;4.28;;;;;;;9.93;97.62;102396.03;5036264;28;20116;-57
2022/10/19 00:21:14;;;;;;;19.35;4.95;;;;;;;9.93;97.51;102385.41;5071168;28;20444;-57
2022/10/19 00:23:42;;;;;;;22.10;4.97;;;;;;;9.87;97.43;102383.22;5076537;28;20045;-57
2022/10/19 00:26:09;;;;;;;21.92;5.80;;;;;;;9.89;96.95;102384.78;5076220;28;20097;-57
2022/10/19 00:28:36;;;;;;;22.55;5.60;;;;;;;9.86;96.91;102387.69;5074406;28;20096;-57
2022/10/19 00:31:05;;;;;;;20.10;5.80;;;;;;;9.74;96.92;102392.03;5076058;28;20494;-57
2022/10/19 00:33:32;;;;;;;19.58;5.45;;;;;;;9.64;96.91;102379.53;5076299;28;20044;-57
2022/10/19 00:35:59;;;;;;;21.92;5.25;;;;;;;9.64;97.01;102384.84;5075894;28;20041;-57
2022/10/19 00:38:25;;;;;;;17.85;5.95;;;;;;;9.65;97.33;102382.09;5068985;28;20056;-57
2022/10/19 00:40:53;;;;;;;18.90;5.63;;;;;;;9.61;97.15;102376.16;5055744;28;20437;-57
2022/10/19 00:43:22;;;;;;;19.92;5.22;;;;;;;9.59;97.35;102382.53;5055844;28;20422;-57
2022/10/19 00:45:49;;;;;;;30.33;6.40;;;;;;;9.53;97.44;102385.59;5055916;28;20491;-57
2022/10/19 00:48:20;;;;;;;19.70;5.60;;;;;;;9.48;97.80;102387.69;5055485;28;20044;-57
2022/10/19 00:50:52;;;;;;;22.77;5.57;;;;;;;9.45;98.49;102391.44;5058245;28;20052;-58
2022/10/19 00:53:19;;;;;;;20.23;5.85;;;;;;;9.49;98.14;102386.75;5055157;28;20509;-57
2022/10/19 00:55:46;;;;;;;20.33;5.15;;;;;;;9.46;97.93;102381.66;5075311;28;20041;-57
2022/10/19 00:58:14;;;;;;;20.17;5.70;;;;;;;9.40;97.67;102375.00;5075471;28;20040;-57
2022/10/19 01:00:40;;;;;;;19.38;5.65;;;;;;;9.41;97.70;102382.84;5075532;28;20481;-57
2022/10/19 01:03:10;;;;;;;23.50;6.00;;;;;;;9.39;97.50;102368.88;5074461;28;20050;-57
2022/10/19 01:05:38;;;;;;;16.48;5.57;;;;;;;9.39;97.69;102375.97;5074807;28;20051;-57
2022/10/19 01:08:06;;;;;;;20.63;5.75;;;;;;;9.37;97.79;102376.06;5071397;28;20036;-57
2022/10/19 01:10:45;;;;;;;18.98;5.57;;;;;;;9.43;97.70;102376.59;5055319;28;20045;-57
2022/10/19 01:13:35;;;;;;;17.40;5.50;;;;;;;9.38;97.55;102369.81;5055160;28;20037;-57
2022/10/19 01:16:12;;;;;;;16.42;5.50;;;;;;;9.39;97.47;102373.31;5055021;28;20076;-57
2022/10/19 01:18:52;;;;;;;19.95;5.70;;;;;;;9.38;97.19;102368.97;5055333;28;20053;-57
2022/10/19 01:21:23;;;;;;;20.35;5.97;;;;;;;9.25;97.59;102368.97;5106434;28;20059;-57
2022/10/19 01:24:10;;;;;;;24.13;6.03;;;;;;;9.22;97.50;102374.47;5074734;28;20048;-57
2022/10/19 01:27:00;;;;;;;18.65;5.88;;;;;;;9.27;97.56;102374.16;5075243;28;20087;-57
2022/10/19 01:30:07;;;;;;;20.88;5.70;;;;;;;9.27;97.22;102375.00;5074579;28;20163;-57
2022/10/19 01:32:58;;;;;;;19.15;5.35;;;;;;;9.20;97.26;102371.94;5074506;28;20051;-57
2022/10/19 01:35:34;;;;;;;22.67;6.57;;;;;;;9.19;97.20;102372.06;5074711;28;20045;-57
2022/10/19 01:38:08;;;;;;;15.32;5.25;;;;;;;9.15;97.26;102368.75;5070985;28;20084;-57
2022/10/19 01:40:55;;;;;;;20.70;5.30;;;;;;;9.15;97.28;102371.41;5054987;28;20041;-57
2022/10/19 01:43:49;;;;;;;15.90;5.07;;;;;;;9.10;97.37;102356.78;5054716;28;20132;-57
2022/10/19 01:46:23;;;;;;;18.45;5.32;;;;;;;9.11;96.26;102361.13;5054462;28;20044;-57
2022/10/19 01:48:56;;;;;;;16.10;5.97;;;;;;;9.06;96.31;102357.94;5054382;28;20486;-57
2022/10/19 01:51:30;;;;;;;16.73;5.40;;;;;;;9.00;96.69;102354.78;5034489;28;20903;-57
2022/10/19 01:54:02;;;;;;;19.67;5.65;;;;;;;8.94;97.00;102347.25;5074439;28;20042;-57
2022/10/19 01:56:30;;;;;;;22.50;5.60;;;;;;;8.90;97.58;102351.06;5074373;28;20049;-57
2022/10/19 01:59:02;;;;;;;19.63;5.90;;;;;;;8.94;97.12;102341.09;5073944;28;20379;-57
2022/10/19 02:01:34;;;;;;;18.90;5.50;;;;;;;8.93;97.17;102340.25;5075093;28;20079;-57
2022/10/19 02:04:02;;;;;;;;;;;;;;;8.90;97.35;102339.63;5074448;28;20051;-57
2022/10/19 02:06:29;;;;;;;17.52;5.45;;;;;;;8.87;97.69;102337.19;5061966;28;19947;-57
2022/10/19 02:08:56;;;;;;;17.75;5.38;;;;;;;8.84;97.54;102339.09;5042925;28;20495;-57
2022/10/19 02:11:23;;;;;;;21.95;6.22;;;;;;;8.81;97.42;102339.28;5034510;28;20049;-57
2022/10/19 02:13:58;;;;;;;16.27;5.53;;;;;;;8.84;97.69;102344.38;5034078;28;20118;-57
2022/10/19 02:16:33;;;;;;;18.80;5.95;;;;;;;8.86;96.97;102343.41;5034137;28;20065;-57
2022/10/19 02:19:02;;;;;;;13.32;5.25;;;;;;;8.85;97.27;102350.50;5033965;28;20041;-57
2022/10/19 02:21:30;;;;;;;27.98;6.00;;;;;;;8.78;97.57;102346.56;5073658;28;20052;-57
2022/10/19 02:23:57;;;;;;;15.50;5.60;;;;;;;8.78;97.72;102342.13;5074225;28;20044;-57
2022/10/19 02:26:24;;;;;;;23.45;5.57;;;;;;;8.86;97.12;102336.34;5073818;28;20037;-57
2022/10/19 02:28:53;;;;;;;14.93;5.43;;;;;;;8.74;96.98;102342.44;5073335;28;20124;-57
2022/10/19 02:31:20;;;;;;;15.93;5.93;;;;;;;8.62;97.04;102338.81;5073683;28;20048;-57
2022/10/19 02:33:47;;;;;;;13.02;5.30;;;;;;;8.60;97.18;102333.66;5074016;28;20106;-57
2022/10/19 02:36:14;;;;;;;23.55;5.50;;;;;;;8.61;97.08;102329.19;5073612;28;20040;-57
2022/10/19 02:38:41;;;;;;;17.73;5.28;;;;;;;8.56;97.65;102318.91;5064401;28;20422;-57
2022/10/19 02:41:17;;;;;;;20.10;5.65;;;;;;;8.55;98.18;102322.53;5053689;28;20049;-57
2022/10/19 02:43:48;;;;;;;21.42;5.78;;;;;;;8.53;97.52;102320.91;5053198;28;20041;-57
2022/10/19 02:46:22;;;;;;;16.70;5.57;;;;;;;8.53;97.60;102311.19;5053696;28;20068;-57
2022/10/19 02:48:50;;;;;;;18.92;5.57;;;;;;;8.48;97.91;102302.72;5053492;28;20127;-57
2022/10/19 02:51:38;;;;;;;17.23;6.00;;;;;;;8.53;97.21;102313.84;5069989;28;20064;-57
2022/10/19 02:54:07;;;;;;;22.25;5.28;;;;;;;8.53;95.81;102308.56;5073152;28;20052;-57
2022/10/19 02:56:34;;;;;;;16.48;5.55;;;;;;;8.50;96.11;102313.19;5073061;28;20040;-57
2022/10/19 02:59:02;;;;;;;15.23;5.47;;;;;;;8.48;96.56;102304.50;5072970;28;20052;-57
2022/10/19 03:01:28;;;;;;;17.73;5.75;;;;;;;8.44;96.98;102306.50;5073157;28;20040;-58
2022/10/19 03:03:55;;;;;;;14.35;5.80;;;;;;;8.41;97.62;102294.31;5073018;28;20117;-57
2022/10/19 03:06:22;;;;;;;19.08;5.53;;;;;;;8.41;96.88;102299.59;5072784;28;20048;-57
2022/10/19 03:08:48;;;;;;;17.05;5.32;;;;;;;8.43;95.77;102297.72;5063118;28;20449;-57
2022/10/19 03:11:15;;;;;;;15.52;5.28;;;;;;;8.42;95.90;102293.41;5052902;28;20044;-57
2022/10/19 03:13:42;;;;;;;18.63;6.20;;;;;;;8.39;95.84;102296.19;5052979;28;20047;-57
2022/10/19 03:16:10;;;;;;;19.23;6.20;;;;;;;8.43;95.87;102297.72;5052888;28;20048;-57
2022/10/19 03:18:38;;;;;;;15.52;5.93;;;;;;;8.36;95.71;102298.19;5053315;28;20053;-57
2022/10/19 03:21:08;;;;;;;12.80;5.03;;;;;;;8.34;97.22;102300.94;5068533;28;20123;-58
2022/10/19 03:23:36;;;;;;;15.07;5.28;;;;;;;8.31;96.99;102295.84;5072835;28;20461;-57
2022/10/19 03:26:04;;;;;;;21.65;5.55;;;;;;;8.34;97.08;102297.47;5073453;28;20045;-57
2022/10/19 03:28:32;;;;;;;22.83;5.53;;;;;;;8.29;96.23;102302.19;5070945;28;20122;-57
2022/10/19 03:30:59;;;;;;;21.58;5.88;;;;;;;8.23;97.01;102303.44;5073365;28;20478;-57
2022/10/19 03:33:26;;;;;;;26.33;6.28;;;;;;;8.30;96.48;102298.63;5072821;28;20052;-58
2022/10/19 03:36:18;;;;;;;17.50;5.40;;;;;;;8.27;95.62;102305.78;5072054;28;20053;-57
2022/10/19 03:38:45;;;;;;;17.10;5.40;;;;;;;8.25;95.78;102305.03;5063028;28;20140;-57
2022/10/19 03:41:12;;;;;;;18.80;5.80;;;;;;;8.21;97.18;102306.19;5053082;28;20517;-57
2022/10/19 03:43:40;;;;;;;17.55;5.53;;;;;;;8.16;97.37;102308.28;5052806;28;20041;-57
2022/10/19 03:46:07;;;;;;;18.63;6.18;;;;;;;8.20;97.53;102307.13;5051737;28;20053;-57
2022/10/19 03:48:34;;;;;;;25.85;6.95;;;;;;;8.16;97.68;102310.94;5052931;28;20045;-57
2022/10/19 03:51:05;;;;;;;20.27;6.50;;;;;;;8.15;97.97;102319.81;5048705;28;20050;-58
2022/10/19 03:53:33;;;;;;;17.80;6.20;;;;;;;8.21;97.46;102323.84;5068597;28;20401;-57
2022/10/19 03:56:05;;;;;;;23.15;6.05;;;;;;;8.20;97.24;102319.50;5076747;28;20132;-57
2022/10/19 03:58:34;;;;;;;21.00;5.88;;;;;;;8.22;97.65;102326.41;5075678;28;20044;-57
2022/10/19 04:01:05;;;;;;;22.27;6.18;;;;;;;8.15;98.09;102319.81;5076586;28;20060;-57
2022/10/19 04:03:32;;;;;;;18.40;5.50;;;;;;;8.20;98.53;102323.00;5076237;28;20123;-57
2022/10/19 04:06:04;;;;;;;23.55;6.78;;;;;;;8.23;97.73;102322.78;5075980;28;20413;-57
2022/10/19 04:08:30;;;;;;;17.67;7.78;;;;;;;8.22;97.29;102323.75;5040508;28;20096;-57
2022/10/19 04:11:01;;;;;;;23.65;6.60;;;;;;;8.21;97.25;102327.34;5068355;28;20095;-57
2022/10/19 04:13:28;;;;;;;23.90;6.90;;;;;;;8.24;97.12;102321.88;5035565;28;20042;-57
2022/10/19 04:16:04;;;;;;;16.63;6.63;;;;;;;8.18;97.13;102321.41;5036483;28;20049;-57
2022/10/19 04:18:31;;;;;;;21.77;7.20;;;;;;;8.21;97.14;102311.47;5036271;28;20065;-57
2022/10/19 04:21:00;;;;;;;18.85;6.55;;;;;;;8.14;98.03;102312.81;5067474;28;20097;-57
2022/10/19 04:23:32;;;;;;;22.65;7.10;;;;;;;8.06;97.73;102320.41;5076435;28;20193;-57
2022/10/19 04:26:01;;;;;;;23.35;6.75;;;;;;;8.13;97.95;102318.22;5076124;28;20432;-58
2022/10/19 04:28:28;;;;;;;32.63;6.20;;;;;;;8.21;97.84;102319.41;5075740;28;20448;-57
2022/10/19 04:30:56;;;;;;;22.75;6.78;;;;;;;8.13;98.01;102316.44;5075946;28;20402;-56
2022/10/19 04:33:22;;;;;;;18.77;6.32;;;;;;;8.22;98.21;102320.25;5076151;28;20094;-56
2022/10/19 04:35:49;;;;;;;20.65;6.53;;;;;;;8.20;98.33;102312.41;5075825;28;20052;-56
2022/10/19 04:38:15;;;;;;;19.88;6.35;;;;;;;8.18;98.82;102316.97;5069319;28;20502;-56
2022/10/19 04:40:42;;;;;;;17.13;6.10;;;;;;;8.23;98.60;102325.44;5056074;28;20045;-57
2022/10/19 04:43:09;;;;;;;18.30;6.65;;;;;;;8.20;97.97;102311.56;5055187;28;20041;-56
2022/10/19 04:45:35;;;;;;;20.27;6.10;;;;;;;8.19;97.15;102318.66;5055737;28;20127;-56
2022/10/19 04:48:02;;;;;;;22.48;6.63;;;;;;;8.16;97.78;102320.66;5055365;28;20045;-56
2022/10/19 04:50:29;;;;;;;18.45;7.85;;;;;;;8.09;97.51;102312.28;5067304;28;20041;-56
2022/10/19 04:52:55;;;;;;;18.95;7.40;;;;;;;8.04;98.02;102306.44;5036782;28;20051;-56
2022/10/19 04:55:23;;;;;;;18.50;7.00;;;;;;;8.06;97.57;102308.03;5075646;28;20032;-56
2022/10/19 04:57:50;;;;;;;23.25;7.13;;;;;;;8.03;98.22;102310.88;5074906;28;20040;-56
2022/10/19 05:00:17;;;;;;;21.38;6.53;;;;;;;8.05;98.72;102298.41;5073844;28;20036;-56
2022/10/19 05:02:44;;;;;;;24.33;7.57;;;;;;;8.07;98.92;102304.44;5075310;28;20047;-57
2022/10/19 05:05:13;;;;;;;26.75;8.13;;;;;;;8.04;99.08;102294.09;5074975;28;20052;-56
2022/10/19 05:07:40;;;;;;;27.65;8.65;;;;;;;8.07;99.22;102288.56;5074427;28;20045;-56
2022/10/19 05:10:08;;;;;;;24.45;9.00;;;;;;;8.14;100.00;102296.13;5055242;28;20052;-56
2022/10/19 05:12:35;;;;;;;32.78;8.07;;;;;;;8.17;100.00;102295.94;5053985;28;20513;-57
2022/10/19 05:15:02;;;;;;;32.45;9.95;;;;;;;8.18;100.00;102293.16;5037561;28;20037;-57
2022/10/19 05:17:30;;;;;;;33.78;10.60;;;;;;;8.26;100.00;102284.75;5055201;28;20045;-56
2022/10/19 05:19:57;;;;;;;27.95;10.68;;;;;;;8.30;100.00;102291.53;5062346;28;20047;-56
2022/10/19 05:22:24;;;;;;;39.40;11.52;;;;;;;8.31;100.00;102290.56;5074978;28;20079;-57
2022/10/19 05:24:51;;;;;;;42.78;11.00;;;;;;;8.31;100.00;102285.28;5075151;28;20431;-57
2022/10/19 05:27:18;;;;;;;39.10;12.05;;;;;;;8.42;100.00;102285.47;5074821;28;20056;-57
2022/10/19 05:29:45;;;;;;;38.35;10.85;;;;;;;8.54;100.00;102282.94;5073303;28;20043;-57
2022/10/19 05:32:12;;;;;;;33.33;11.73;;;;;;;8.57;100.00;102280.09;5075105;28;20113;-57
2022/10/19 05:34:39;;;;;;;33.25;11.35;;;;;;;8.67;100.00;102288.25;5074236;28;20044;-57
2022/10/19 05:37:05;;;;;;;31.13;12.10;;;;;;;8.53;100.00;102282.09;5075093;28;20060;-57
2022/10/19 05:39:32;;;;;;;38.53;12.00;;;;;;;8.53;100.00;102279.47;5058011;28;20071;-57
2022/10/19 05:41:59;;;;;;;31.00;11.80;;;;;;;8.67;100.00;102281.16;5054728;28;20051;-57
2022/10/19 05:44:25;;;;;;;40.42;11.52;;;;;;;8.68;100.00;102276.69;5054130;28;20053;-57
2022/10/19 05:46:52;;;;;;;30.45;12.80;;;;;;;8.63;100.00;102280.50;5052989;28;20447;-57
2022/10/19 05:49:21;;;;;;;35.80;12.25;;;;;;;8.67;100.00;102278.50;5087846;28;20064;-57
2022/10/19 05:51:48;;;;;;;38.08;13.52;;;;;;;8.65;100.00;102277.75;5034401;28;20036;-57
2022/10/19 05:54:15;;;;;;;39.05;13.05;;;;;;;8.63;100.00;102277.88;5073944;28;20098;-57
2022/10/19 05:56:42;;;;;;;31.98;13.32;;;;;;;8.76;100.00;102284.97;5073752;28;20387;-57
2022/10/19 05:59:16;;;;;;;38.67;12.70;;;;;;;8.80;100.00;102279.38;5074245;28;20044;-57
2022/10/19 06:01:44;;;;;;;45.20;13.23;;;;;;;8.80;100.00;102279.38;5074126;28;20048;-57
2022/10/19 06:04:13;;;;;;;33.95;13.60;;;;;;;8.79;100.00;102277.69;5073740;28;20040;-56
2022/10/19 06:06:41;;;;;;;34.28;13.98;;;;;;;8.70;100.00;102277.47;5073785;28;20095;-56
2022/10/19 06:09:09;;;;;;;32.05;13.18;;;;;;;8.74;100.00;102273.66;5067450;28;20102;-57
2022/10/19 06:11:38;;;;;;;35.22;13.20;;;;;;;8.82;100.00;102269.53;5071510;28;20051;-56
2022/10/19 06:14:09;;;;;;;31.85;12.60;;;;;;;8.82;100.00;102269.53;5071783;28;20048;-57
2022/10/19 06:16:36;;;;;;;39.08;13.35;;;;;;;8.91;100.00;102275.97;5073879;28;20070;-56
2022/10/19 06:19:04;;;;;;;37.63;12.98;;;;;;;8.91;100.00;102272.50;5073786;28;20044;-57
2022/10/19 06:21:32;;;;;;;36.75;13.65;;;;;;;8.94;100.00;102274.94;5053712;28;20441;-57
2022/10/19 06:24:02;;;;;;;34.05;12.68;;;;;;;8.90;100.00;102271.66;5053597;28;20041;-57
2022/10/19 06:26:33;;;;;;;34.47;13.23;;;;;;;8.88;100.00;102281.50;5053728;28;20044;-57
2022/10/19 06:29:00;;;;;;;32.08;12.93;;;;;;;8.95;100.00;102279.25;5053487;28;20056;-57
2022/10/19 06:31:29;;;;;;;39.78;13.13;;;;;;;8.99;100.00;102294.84;5053459;28;20049;-59
2022/10/19 06:33:56;;;;;;;40.40;13.98;;;;;;;9.05;100.00;102292.72;5053850;28;20487;-57
2022/10/19 06:36:26;;;;;;;36.13;13.25;;;;;;;8.96;100.00;102294.19;5053374;28;20045;-56
2022/10/19 06:38:53;;;;;;;33.22;13.48;;;;;;;9.00;100.00;102298.31;5053597;28;20411;-56
2022/10/19 06:41:19;;;;;;;36.92;12.93;;;;;;;9.03;100.00;102296.31;5086073;28;20037;-57
2022/10/19 06:43:54;;;;;;;29.48;12.32;;;;;;;9.08;99.92;102303.06;5052970;28;20056;-57
2022/10/19 06:46:22;;;;;;;40.13;12.82;;;;;;;9.11;99.90;102294.94;5039176;28;20144;-57
2022/10/19 06:48:51;;;;;;;31.75;13.10;;;;;;;9.08;99.76;102290.72;5033075;28;20045;-57
2022/10/19 06:51:19;;;;;;;32.83;13.43;;;;;;;9.03;100.00;102296.31;5028338;28;20565;-62
2022/10/19 06:53:46;;;;;;;35.60;12.50;;;;;;;9.15;99.87;102291.09;5051407;28;20045;-62
2022/10/19 06:56:12;;;;;;;38.92;14.18;;;;;;;9.15;99.86;102286.69;5050512;28;20407;-62
2022/10/19 06:58:39;;;;;;;33.47;13.27;;;;;;;9.14;100.00;102282.31;5032775;28;20068;-62
2022/10/19 07:01:07;;;;;;;31.65;12.95;;;;;;;9.15;99.68;102276.09;5051472;28;20102;-62
2022/10/19 07:03:35;;;;;;;35.30;13.15;;;;;;;9.19;99.46;102274.09;5046887;28;20052;-62
2022/10/19 07:06:05;;;;;;;34.97;13.40;;;;;;;9.34;99.35;102285.38;5072317;28;20056;-62
2022/10/19 07:08:34;;;;;;;41.92;13.32;;;;;;;9.32;98.74;102277.53;5043891;28;20045;-63
2022/10/19 07:11:04;;;;;;;39.17;13.38;;;;;;;9.29;99.13;102276.91;5050349;28;20398;-64
2022/10/19 07:13:30;;;;;;;35.97;12.18;;;;;;;9.33;98.65;102281.91;5049983;28;20044;-63
2022/10/19 07:15:59;;;;;;;27.98;13.35;;;;;;;9.31;98.68;102291.72;5046580;28;20041;-62
2022/10/19 07:18:26;;;;;;;31.05;12.93;;;;;;;9.34;98.99;102288.88;5035332;28;20049;-62
2022/10/19 07:20:56;;;;;;;31.23;13.30;;;;;;;9.35;98.48;102300.31;5044555;28;20044;-64
2022/10/19 07:23:25;;;;;;;32.67;15.38;;;;;;;9.39;98.20;102299.16;5051590;28;20128;-64
2022/10/19 07:25:54;;;;;;;35.05;14.30;;;;;;;9.56;98.23;102301.44;5030993;28;20554;-57
2022/10/19 07:28:21;;;;;;;31.40;14.10;;;;;;;9.64;98.44;102300.03;5050502;28;20466;-57
2022/10/19 07:30:48;;;;;;;30.67;12.90;;;;;;;9.64;97.51;102311.53;5047547;28;20049;-56
2022/10/19 07:33:15;;;;;;;33.72;13.40;;;;;;;9.71;97.05;102309.25;5044135;28;20424;-56
2022/10/19 07:35:43;;;;;;;35.28;13.60;;;;;;;9.78;95.82;102307.84;5053802;28;20090;-56
2022/10/19 07:38:09;;;;;;;37.10;13.40;;;;;;;9.89;95.22;102315.88;5061974;28;20048;-56
2022/10/19 07:40:36;;;;;;;32.13;13.23;;;;;;;9.88;94.99;102316.84;5058658;28;20122;-56
2022/10/19 07:43:03;;;;;;;31.50;12.88;;;;;;;9.92;94.79;102310.34;5061281;28;20051;-56
2022/10/19 07:45:31;;;;;;;32.25;13.07;;;;;;;9.97;95.12;102310.88;5063671;28;20049;-56
2022/10/19 07:48:00;;;;;;;35.67;13.38;;;;;;;10.16;94.56;102306.88;5049053;28;20383;-56
2022/10/19 07:50:26;;;;;;;30.45;11.73;;;;;;;10.26;94.15;102299.06;5049145;28;20494;-59
2022/10/19 07:52:54;;;;;;;28.33;13.23;;;;;;;10.32;93.54;102299.50;4957597;28;20519;-59
2022/10/19 07:55:20;;;;;;;30.33;12.23;;;;;;;10.30;93.91;102295.25;5036340;28;20140;-59
2022/10/19 07:57:48;;;;;;;30.42;13.65;;;;;;;10.44;93.43;102297.75;5058957;28;20040;-59
2022/10/19 08:00:16;;;;;;;29.40;13.43;;;;;;;10.60;93.34;102305.38;5025539;28;20044;-59
2022/10/19 08:02:43;;;;;;;36.13;14.68;;;;;;;10.69;91.98;102310.00;5054741;28;20475;-59
2022/10/19 08:05:11;;;;;;;27.05;13.63;;;;;;;10.71;91.97;102309.88;5026030;28;20049;-59
2022/10/19 08:07:38;;;;;;;39.33;14.60;;;;;;;10.61;90.99;102308.91;5046897;28;20051;-60
2022/10/19 08:10:05;;;;;;;29.75;13.40;;;;;;;10.56;90.66;102296.81;5032057;28;20051;-60
2022/10/19 08:12:35;;;;;;;28.70;13.70;;;;;;;10.65;91.52;102292.63;5054234;28;20091;-60
2022/10/19 08:15:05;;;;;;;32.75;14.05;;;;;;;10.64;92.01;102282.97;5037300;28;20051;-59
2022/10/19 08:17:35;;;;;;;30.55;14.50;;;;;;;10.67;92.45;102289.84;5053348;28;20048;-60
2022/10/19 08:20:04;;;;;;;28.23;13.20;;;;;;;10.66;91.40;102278.41;5033689;28;20675;-59
2022/10/19 08:22:30;;;;;;;31.02;12.70;;;;;;;10.66;90.56;102280.19;5059182;28;20045;-59
2022/10/19 08:24:57;;;;;;;30.33;12.52;;;;;;;10.63;89.49;102280.44;5032141;28;20047;-60
2022/10/19 08:27:24;;;;;;;30.70;13.00;;;;;;;10.81;89.88;102276.38;5040397;28;20049;-59
2022/10/19 08:29:51;;;;;;;29.88;13.30;;;;;;;10.67;89.62;102280.06;5033198;28;20083;-59
2022/10/19 08:32:17;;;;;;;36.67;12.55;;;;;;;10.80;89.30;102282.63;5053404;28;20045;-59
2022/10/19 08:34:44;;;;;;;32.42;12.25;;;;;;;10.83;89.42;102287.72;5022855;28;20049;-59
2022/10/19 08:37:11;;;;;;;34.53;12.45;;;;;;;10.93;89.12;102282.53;5049588;28;20052;-59
2022/10/19 08:39:40;;;;;;;31.35;12.20;;;;;;;10.86;87.88;102287.47;5047226;28;20050;-60
2022/10/19 08:42:16;;;;;;;34.25;12.77;;;;;;;10.93;89.40;102275.44;5065258;28;20040;-59
2022/10/19 08:45:15;;;;;;;35.58;12.98;;;;;;;10.93;89.13;102267.47;5034470;28;20514;-60
2022/10/19 08:48:15;;;;;;;30.27;13.13;;;;;;;10.98;89.14;102264.44;5059728;28;20051;-61
2022/10/19 08:50:44;;;;;;;31.65;12.65;;;;;;;11.03;89.90;102261.44;5030126;28;20048;-60
2022/10/19 08:53:17;;;;;;;29.20;12.35;;;;;;;11.00;89.06;102259.00;5022730;28;20778;-60
2022/10/19 08:56:13;;;;;;;29.20;12.95;;;;;;;11.04;88.93;102253.34;5027810;28;20045;-59
2022/10/19 08:59:05;;;;;;;32.85;11.77;;;;;;;10.94;87.46;102253.22;5046001;28;20041;-59
2022/10/19 09:01:55;;;;;;;23.20;10.20;;;;;;;11.01;86.69;102245.63;5048126;28;20045;-60
2022/10/19 09:04:29;;;;;;;30.00;11.23;;;;;;;11.08;87.40;102243.34;5032193;28;20049;-60
2022/10/19 09:07:25;;;;;;;25.45;9.63;;;;;;;11.12;87.34;102235.00;5049575;28;20399;-60
2022/10/19 09:10:15;;;;;;;19.25;8.50;;;;;;;11.20;85.15;102233.53;5022062;28;20124;-60
2022/10/19 09:13:03;;;;;;;21.65;8.38;;;;;;;11.24;84.19;102221.69;5053325;28;20455;-60
2022/10/19 09:15:41;;;;;;;24.33;7.82;;;;;;;11.34;84.82;102233.28;5021937;28;20049;-58
2022/10/19 09:18:10;;;;;;;21.02;8.32;;;;;;;11.47;86.40;102225.16;5053457;28;20036;-59
2022/10/19 09:20:43;;;;;;;23.83;7.15;;;;;;;11.47;82.61;102226.00;5044121;28;20098;-59
2022/10/19 09:25:57;;;;;;;21.25;7.20;;;;;;;11.62;82.24;102218.59;5106572;27;20248;-59
2022/10/19 09:31:32;;;;;;;24.77;6.63;;;;;;;11.94;81.03;102223.13;5074854;27;20606;-59
2022/10/19 09:34:10;;;;;;;23.73;6.75;;;;;;;12.02;80.96;102219.84;5086481;28;20507;-59
2022/10/19 09:36:44;;;;;;;26.65;6.40;;;;;;;12.13;81.23;102219.78;5080779;28;20405;-59
2022/10/19 09:39:15;;;;;;;17.67;6.55;;;;;;;12.16;77.80;102226.69;5084994;28;20090;-59
2022/10/19 09:41:48;;;;;;;18.00;6.47;;;;;;;12.25;78.77;102215.25;5072603;28;20105;-60
2022/10/19 09:44:15;;;;;;;19.65;6.05;;;;;;;12.27;77.79;102213.31;5086897;28;20067;-60
2022/10/19 09:46:51;;;;;;;19.60;6.18;;;;;;;12.35;79.26;102217.97;5073072;28;20052;-60
2022/10/19 09:49:36;;;;;;;24.70;5.68;;;;;;;12.41;76.15;102215.66;5083926;28;20052;-58
2022/10/19 09:52:03;;;;;;;21.92;6.30;;;;;;;12.60;77.47;102212.25;5036753;28;20032;-60
2022/10/19 09:54:35;;;;;;;19.98;6.72;;;;;;;12.64;76.60;102212.84;5094467;28;20044;-60
2022/10/19 09:57:02;;;;;;;16.75;5.85;;;;;;;12.76;76.78;102217.09;5074954;28;20139;-60
2022/10/19 09:59:33;;;;;;;19.55;6.57;;;;;;;12.90;75.42;102220.38;5082912;28;20033;-60
2022/10/19 10:02:18;;;;;;;20.80;5.97;;;;;;;13.00;76.84;102215.97;5071162;28;20066;-60
2022/10/19 10:04:55;;;;;;;14.00;5.38;;;;;;;13.07;75.92;102209.13;5074575;28;20102;-60
2022/10/19 10:07:26;;;;;;;15.40;5.63;;;;;;;13.13;75.10;102208.56;5079511;28;20055;-60
2022/10/19 10:09:53;;;;;;;18.80;7.32;;;;;;;13.24;75.27;102207.63;5079978;28;20036;-60
2022/10/19 10:12:21;;;;;;;15.65;5.30;;;;;;;13.47;74.87;102202.13;5080957;28;20052;-60
2022/10/19 10:14:49;;;;;;;21.40;6.20;;;;;;;13.66;75.26;102203.94;5089999;28;20047;-60
2022/10/19 10:17:21;;;;;;;24.40;5.63;;;;;;;13.63;73.15;102205.91;5082504;28;20043;-60
2022/10/19 10:20:00;;;;;;;22.92;5.78;;;;;;;13.70;72.50;102202.69;5081662;28;20048;-60
2022/10/19 10:22:30;;;;;;;26.40;8.20;;;;;;;13.76;71.99;102197.66;5082344;28;20039;-60
2022/10/19 10:24:57;;;;;;;19.58;5.70;;;;;;;13.98;71.30;102201.84;5070850;28;20036;-60
2022/10/19 10:27:32;;;;;;;20.63;5.60;;;;;;;14.14;71.00;102205.81;5084511;28;20047;-60
2022/10/19 10:30:05;;;;;;;20.30;6.07;;;;;;;14.40;69.79;102198.84;5071020;28;21111;-62
2022/10/19 10:32:38;;;;;;;20.20;5.53;;;;;;;14.78;70.19;102198.94;5085754;28;20040;-60
2022/10/19 10:35:17;;;;;;;23.80;5.10;;;;;;;15.16;66.13;102191.72;5073661;28;26056;-60
2022/10/19 10:37:46;;;;;;;19.67;5.05;;;;;;;15.63;64.71;102186.22;5082536;28;20089;-60
2022/10/19 10:43:05;;;;;;;15.93;4.70;;;;;;;17.95;56.30;102179.25;5061526;27;20120;-62
2022/10/19 10:45:38;;;;;;;15.63;4.63;;;;;;;18.76;52.64;102180.94;5046462;28;20045;-60
2022/10/19 10:48:19;;;;;;;20.67;4.63;;;;;;;20.62;48.23;102173.78;5061080;28;20499;-60
2022/10/19 10:50:46;;;;;;;17.70;4.10;;;;;;;22.41;45.04;102176.69;5054114;28;20386;-61
2022/10/19 10:53:35;;;;;;;15.02;3.80;;;;;;;24.39;38.41;102187.44;4998861;28;20528;-61
2022/10/19 10:56:04;;;;;;;13.15;3.97;;;;;;;25.55;35.89;102187.66;5058072;28;20152;-52
2022/10/19 10:58:42;;;;;;;17.08;5.03;;;;;;;26.18;32.52;102186.75;5054310;28;20041;-55
2022/10/19 11:01:31;;;;;;;15.82;4.05;;;;;;;26.78;32.27;102170.63;5049476;28;20081;-62
2022/10/19 11:04:05;;;;;;;10.52;3.60;;;;;;;26.03;32.11;102168.06;5035785;28;20045;-62
2022/10/19 11:06:40;;;;;;;13.98;3.60;;;;;;;24.13;33.83;102158.50;5060215;28;20032;-61
2022/10/19 11:09:20;;;;;;;15.68;3.85;;;;;;;25.51;32.31;102159.25;5031769;28;20052;-62
2022/10/19 11:11:50;;;;;;;14.75;3.95;;;;;;;25.55;31.85;102163.19;5056713;28;20042;-61
2022/10/19 11:14:42;;;;;;;9.38;2.88;;;;;;;26.11;30.61;102156.06;5033564;28;20072;-62
2022/10/19 11:17:18;;;;;;;12.50;2.88;;;;;;;27.13;29.79;102144.63;5041883;28;20033;-62
2022/10/19 11:19:45;;;;;;;12.55;3.42;;;;;;;27.99;29.19;102139.75;5056881;28;20498;-62
2022/10/19 11:22:24;;;;;;;12.13;3.75;;;;;;;27.98;27.90;102131.81;5026516;28;20092;-62
2022/10/19 11:25:16;;;;;;;11.25;3.20;;;;;;;28.32;28.00;102135.56;5041073;28;20049;-62
2022/10/19 11:31:21;;;;;;;18.80;3.42;;;;;;;29.38;26.42;102134.41;5097193;27;20137;-61
2022/10/19 11:34:20;;;;;;;14.90;3.20;;;;;;;29.46;25.79;102128.53;5054734;28;20094;-61
2022/10/19 11:36:58;;;;;;;10.30;3.10;;;;;;;28.60;26.61;102121.19;5060159;28;20044;-60
2022/10/19 11:40:04;;;;;;;11.48;3.08;;;;;;;27.28;29.13;102115.09;5048970;28;20124;-60
2022/10/19 11:42:55;;;;;;;14.93;3.60;;;;;;;26.16;30.43;102115.44;5042201;28;20806;-60
2022/10/19 11:45:40;;;;;;;21.70;3.20;;;;;;;26.17;30.00;102108.94;5070979;28;20059;-61
2022/10/19 11:48:32;;;;;;;12.05;3.20;;;;;;;25.24;32.72;102105.94;5041839;28;20059;-61
2022/10/19 11:51:24;;;;;;;11.50;3.53;;;;;;;25.41;31.23;102108.97;5038306;28;20365;-66